Terminal Aerodrome Forecast
Issued by NWS

Home | Current Version | Previous Version | Text Only | Print | Product List | Glossary On
Versions: 1 2 3 4 5 6 7 8 9 10 11 12 13
000
FTUS44 KEPZ 021128
TAFLRU
TAF
KLRU 021128Z 0212/0312 29007KT P6SM FEW100 BKN250
     FM022000 24008G16KT P6SM SCT090 BKN250
     FM030300 32010KT P6SM SCT090 BKN250=

USA.gov is the U.S. government's official web portal to all federal, state and local government web resources and services.